Zürich Airport LSZH

Airport Data

Name: Zürich Airport

Ident: LSZH

Lat: 47.46469879

Long: 8.54916954

Elevation: 1416 ft

IataCode: ZRH

City: Zurich

Metar

2021/09/28 07:50
LSZH 280750Z 03006KT 350V070 9999 FEW026 14/09 Q1025 NOSIG

Taf

2021/09/28 06:33
TAF LSZH 280525Z 2806/2912 03005KT 9999 FEW030 BKN048 TX18/2814Z TN13/2806Z TN13/2904Z
BECMG 2807/2810 05008KT
BECMG 2816/2819 VRB02KT PROB40
TEMPO 2819/2822 SHRA SCT040TCU
Add a Webcam Url. We will unlock it as soon is possible. Thank you:
Url: Title: